EJU223 LPPR-EHAM
Flight info
| Callsign | EJU223 |
|---|---|
| Flight time | N/A |
| Altitude | 24000 |
| Route | TURON P600 ASDEB/N0454F340 DCT LOTEE/N0456F360 DCT AZFIC DCT ERIGA DCT GODIX DCT PODEM UN873 BAZOS DCT LUMIL DCT BELOB UY873 DENUT |
| Aircraft | A320/M-SDE3FGHIRWY/LB1 |
Departure
| Time | N/A |
|---|---|
| Airport | Francisco de Sá Carneiro Airport (LPPR) |
Arrival
| Time | 2026-05-05 20:22 |
|---|---|
| Airport | Amsterdam Airport Schiphol (EHAM) |
| Time | Latitude | Longitude | Altitude | Speed | Heading |
|---|---|---|---|---|---|
| 2026-05-05 19:42 | 49.32396 | 1.31599 | 36021 ft | 452 kts | 43° |
| 2026-05-05 19:43 | 49.36947 | 1.38245 | 36020 ft | 452 kts | 43° |
| 2026-05-05 19:43 | 49.41547 | 1.44823 | 36018 ft | 452 kts | 41° |
| 2026-05-05 19:44 | 49.46328 | 1.51096 | 36017 ft | 452 kts | 39° |
| 2026-05-05 19:44 | 49.51155 | 1.57301 | 36015 ft | 452 kts | 40° |
| 2026-05-05 19:45 | 49.55932 | 1.63565 | 35750 ft | 449 kts | 40° |
| 2026-05-05 19:45 | 49.58300 | 1.66720 | 35634 ft | 451 kts | 40° |
| 2026-05-05 19:45 | 49.60672 | 1.69893 | 35494 ft | 452 kts | 41° |
| 2026-05-05 19:45 | 49.63052 | 1.73074 | 35376 ft | 453 kts | 40° |
| 2026-05-05 19:46 | 49.65435 | 1.76254 | 35252 ft | 453 kts | 40° |
| 2026-05-05 19:46 | 49.67822 | 1.79438 | 35125 ft | 454 kts | 40° |
| 2026-05-05 19:46 | 49.70207 | 1.82628 | 35006 ft | 454 kts | 40° |
| 2026-05-05 19:46 | 49.72593 | 1.85825 | 34878 ft | 454 kts | 40° |
| 2026-05-05 19:47 | 49.74981 | 1.89030 | 34753 ft | 454 kts | 41° |
| 2026-05-05 19:47 | 49.77365 | 1.92232 | 34629 ft | 454 kts | 41° |
| 2026-05-05 19:47 | 49.79751 | 1.95440 | 34504 ft | 455 kts | 41° |
| 2026-05-05 19:47 | 49.82140 | 1.98652 | 34379 ft | 455 kts | 41° |
| 2026-05-05 19:48 | 49.84528 | 2.01868 | 34255 ft | 455 kts | 41° |
| 2026-05-05 19:48 | 49.86913 | 2.05089 | 34130 ft | 455 kts | 41° |
| 2026-05-05 19:48 | 49.89296 | 2.08314 | 34005 ft | 455 kts | 41° |
| 2026-05-05 19:48 | 49.91683 | 2.11551 | 33881 ft | 455 kts | 41° |
| 2026-05-05 19:49 | 49.94067 | 2.14785 | 33751 ft | 456 kts | 41° |
| 2026-05-05 19:49 | 49.98838 | 2.21271 | 33506 ft | 456 kts | 41° |
| 2026-05-05 19:49 | 50.01225 | 2.24513 | 33382 ft | 456 kts | 41° |
| 2026-05-05 19:50 | 50.03616 | 2.27760 | 33259 ft | 457 kts | 41° |
| 2026-05-05 19:50 | 50.06006 | 2.31013 | 33132 ft | 457 kts | 41° |
| 2026-05-05 19:50 | 50.08394 | 2.34276 | 33007 ft | 457 kts | 41° |
| 2026-05-05 19:50 | 50.10784 | 2.37552 | 32881 ft | 458 kts | 41° |
| 2026-05-05 19:51 | 50.13176 | 2.40833 | 32756 ft | 458 kts | 41° |
| 2026-05-05 19:51 | 50.15565 | 2.44115 | 32631 ft | 458 kts | 41° |
| 2026-05-05 19:51 | 50.17953 | 2.47403 | 32506 ft | 458 kts | 41° |
| 2026-05-05 19:51 | 50.20344 | 2.50700 | 32381 ft | 459 kts | 41° |
| 2026-05-05 19:52 | 50.22734 | 2.54000 | 32256 ft | 459 kts | 41° |
| 2026-05-05 19:52 | 50.25126 | 2.57300 | 32136 ft | 459 kts | 41° |
| 2026-05-05 19:52 | 50.27519 | 2.60611 | 32006 ft | 459 kts | 41° |
| 2026-05-05 19:52 | 50.29911 | 2.63925 | 31881 ft | 459 kts | 41° |
| 2026-05-05 19:53 | 50.32304 | 2.67237 | 31756 ft | 460 kts | 41° |
| 2026-05-05 19:53 | 50.34698 | 2.70556 | 31631 ft | 460 kts | 41° |
| 2026-05-05 19:53 | 50.37089 | 2.73885 | 31506 ft | 460 kts | 41° |
| 2026-05-05 19:53 | 50.39479 | 2.77217 | 31380 ft | 460 kts | 41° |
| 2026-05-05 19:54 | 50.41873 | 2.80553 | 31240 ft | 460 kts | 41° |
| 2026-05-05 19:54 | 50.44267 | 2.83892 | 31038 ft | 460 kts | 41° |
| 2026-05-05 19:54 | 50.46658 | 2.87226 | 30839 ft | 461 kts | 41° |
| 2026-05-05 19:54 | 50.49058 | 2.90573 | 30639 ft | 461 kts | 41° |
| 2026-05-05 19:55 | 50.51457 | 2.93920 | 30438 ft | 462 kts | 41° |
| 2026-05-05 19:55 | 50.53854 | 2.97274 | 30235 ft | 462 kts | 41° |
| 2026-05-05 19:55 | 50.56250 | 3.00639 | 30038 ft | 461 kts | 41° |
| 2026-05-05 19:55 | 50.58639 | 3.04006 | 29833 ft | 460 kts | 41° |
| 2026-05-05 19:56 | 50.61017 | 3.07359 | 29637 ft | 459 kts | 41° |
| 2026-05-05 19:56 | 50.62584 | 3.09576 | 29505 ft | 458 kts | 41° |
| 2026-05-05 19:56 | 50.64948 | 3.12930 | 29293 ft | 456 kts | 42° |
| 2026-05-05 19:56 | 50.67300 | 3.16272 | 29041 ft | 455 kts | 42° |
| 2026-05-05 19:57 | 50.69654 | 3.19580 | 28780 ft | 453 kts | 39° |
| 2026-05-05 19:57 | 50.72215 | 3.22449 | 28538 ft | 450 kts | 30° |
| 2026-05-05 19:57 | 50.74969 | 3.24788 | 28292 ft | 449 kts | 27° |
| 2026-05-05 19:57 | 50.77730 | 3.27074 | 28040 ft | 447 kts | 27° |
| 2026-05-05 19:58 | 50.80475 | 3.29356 | 27790 ft | 445 kts | 27° |
| 2026-05-05 19:58 | 50.83211 | 3.31638 | 27442 ft | 443 kts | 27° |
| 2026-05-05 19:58 | 50.85928 | 3.33910 | 27069 ft | 441 kts | 27° |
| 2026-05-05 19:58 | 50.88628 | 3.36176 | 26695 ft | 438 kts | 27° |
| 2026-05-05 19:59 | 50.91313 | 3.38430 | 26316 ft | 435 kts | 27° |
| 2026-05-05 19:59 | 50.93986 | 3.40673 | 25942 ft | 433 kts | 27° |
| 2026-05-05 19:59 | 50.96639 | 3.42901 | 25571 ft | 431 kts | 27° |
| 2026-05-05 19:59 | 50.99277 | 3.45122 | 25193 ft | 428 kts | 27° |
| 2026-05-05 20:00 | 51.01900 | 3.47332 | 24817 ft | 426 kts | 27° |
| 2026-05-05 20:00 | 51.04501 | 3.49532 | 24444 ft | 420 kts | 28° |
| 2026-05-05 20:00 | 51.07053 | 3.51690 | 24064 ft | 411 kts | 27° |
| 2026-05-05 20:00 | 51.09553 | 3.53803 | 23688 ft | 403 kts | 28° |
| 2026-05-05 20:01 | 51.12012 | 3.55885 | 23312 ft | 397 kts | 28° |
| 2026-05-05 20:01 | 51.14437 | 3.57944 | 22937 ft | 394 kts | 28° |
| 2026-05-05 20:01 | 51.16840 | 3.59990 | 22563 ft | 391 kts | 28° |
| 2026-05-05 20:01 | 51.19238 | 3.62036 | 22183 ft | 388 kts | 28° |
| 2026-05-05 20:02 | 51.21663 | 3.63851 | 21811 ft | 382 kts | 20° |
| 2026-05-05 20:02 | 51.24194 | 3.65024 | 21431 ft | 376 kts | 11° |
| 2026-05-05 20:02 | 51.26769 | 3.65574 | 21058 ft | 371 kts | 2° |
| 2026-05-05 20:02 | 51.29336 | 3.65584 | 20685 ft | 367 kts | 358° |
| 2026-05-05 20:03 | 51.31876 | 3.65505 | 20358 ft | 363 kts | 358° |
| 2026-05-05 20:03 | 51.34381 | 3.65428 | 20032 ft | 357 kts | 358° |
| 2026-05-05 20:03 | 51.36846 | 3.65352 | 19708 ft | 352 kts | 358° |
| 2026-05-05 20:03 | 51.39279 | 3.65277 | 19379 ft | 347 kts | 358° |
| 2026-05-05 20:04 | 51.41686 | 3.65200 | 19056 ft | 345 kts | 358° |
| 2026-05-05 20:04 | 51.44073 | 3.65126 | 18730 ft | 341 kts | 359° |
| 2026-05-05 20:04 | 51.46424 | 3.65058 | 18405 ft | 336 kts | 359° |
| 2026-05-05 20:04 | 51.48752 | 3.64989 | 18082 ft | 332 kts | 358° |
| 2026-05-05 20:05 | 51.51051 | 3.64919 | 17752 ft | 329 kts | 358° |
| 2026-05-05 20:05 | 51.53325 | 3.64850 | 17428 ft | 325 kts | 358° |
| 2026-05-05 20:05 | 51.55577 | 3.64781 | 17103 ft | 323 kts | 358° |
| 2026-05-05 20:05 | 51.57817 | 3.64711 | 16778 ft | 321 kts | 358° |
| 2026-05-05 20:06 | 51.60045 | 3.64641 | 16450 ft | 319 kts | 358° |
| 2026-05-05 20:06 | 51.62258 | 3.64570 | 16127 ft | 318 kts | 358° |
| 2026-05-05 20:06 | 51.64463 | 3.64497 | 15801 ft | 316 kts | 358° |
| 2026-05-05 20:06 | 51.66657 | 3.64450 | 15475 ft | 315 kts | 2° |
| 2026-05-05 20:07 | 51.68817 | 3.64927 | 15149 ft | 313 kts | 14° |
| 2026-05-05 20:07 | 51.70860 | 3.66106 | 14823 ft | 312 kts | 26° |
| 2026-05-05 20:07 | 51.72709 | 3.67918 | 14493 ft | 311 kts | 37° |
| 2026-05-05 20:07 | 51.74287 | 3.70279 | 14173 ft | 310 kts | 49° |
| 2026-05-05 20:08 | 51.75545 | 3.73086 | 13848 ft | 308 kts | 57° |
| 2026-05-05 20:08 | 51.76694 | 3.76002 | 13522 ft | 307 kts | 57° |
| 2026-05-05 20:08 | 51.77992 | 3.78713 | 13197 ft | 305 kts | 46° |
| 2026-05-05 20:08 | 51.79437 | 3.81214 | 12871 ft | 304 kts | 47° |
| 2026-05-05 20:09 | 51.80873 | 3.83703 | 12546 ft | 302 kts | 47° |
| 2026-05-05 20:09 | 51.82304 | 3.86186 | 12220 ft | 301 kts | 46° |
| 2026-05-05 20:09 | 51.83727 | 3.88652 | 11895 ft | 299 kts | 47° |
| 2026-05-05 20:09 | 51.85143 | 3.91113 | 11570 ft | 298 kts | 47° |
| 2026-05-05 20:10 | 51.86551 | 3.93561 | 11242 ft | 296 kts | 47° |
| 2026-05-05 20:10 | 51.87932 | 3.95964 | 10917 ft | 295 kts | 47° |
| 2026-05-05 20:10 | 51.89345 | 3.98420 | 10592 ft | 293 kts | 47° |
| 2026-05-05 20:10 | 51.90715 | 4.00804 | 10270 ft | 292 kts | 47° |
| 2026-05-05 20:11 | 51.92091 | 4.03204 | 9941 ft | 291 kts | 47° |
| 2026-05-05 20:11 | 51.93464 | 4.05599 | 9619 ft | 289 kts | 47° |
| 2026-05-05 20:11 | 51.94829 | 4.07979 | 9294 ft | 288 kts | 47° |
| 2026-05-05 20:11 | 51.96186 | 4.10350 | 8968 ft | 286 kts | 47° |
| 2026-05-05 20:12 | 51.97535 | 4.12709 | 8642 ft | 285 kts | 47° |
| 2026-05-05 20:12 | 51.98877 | 4.15059 | 8315 ft | 283 kts | 47° |
| 2026-05-05 20:12 | 52.00211 | 4.17391 | 7991 ft | 280 kts | 47° |
| 2026-05-05 20:12 | 52.01522 | 4.19688 | 7665 ft | 276 kts | 47° |
| 2026-05-05 20:13 | 52.02817 | 4.21958 | 7338 ft | 272 kts | 47° |
| 2026-05-05 20:13 | 52.04091 | 4.24199 | 7016 ft | 269 kts | 47° |
| 2026-05-05 20:13 | 52.05350 | 4.26417 | 6687 ft | 265 kts | 47° |
| 2026-05-05 20:13 | 52.06589 | 4.28600 | 6359 ft | 260 kts | 47° |
| 2026-05-05 20:14 | 52.07794 | 4.30725 | 6033 ft | 251 kts | 47° |
| 2026-05-05 20:14 | 52.08959 | 4.32782 | 5708 ft | 244 kts | 47° |
| 2026-05-05 20:14 | 52.10095 | 4.34784 | 5387 ft | 238 kts | 47° |
| 2026-05-05 20:14 | 52.11218 | 4.36769 | 5046 ft | 231 kts | 47° |
| 2026-05-05 20:15 | 52.12287 | 4.38663 | 4725 ft | 223 kts | 47° |
| 2026-05-05 20:15 | 52.13314 | 4.40481 | 4527 ft | 216 kts | 47° |
| 2026-05-05 20:15 | 52.14312 | 4.42250 | 4336 ft | 212 kts | 47° |
| 2026-05-05 20:15 | 52.15300 | 4.43999 | 3999 ft | 203 kts | 47° |
| 2026-05-05 20:16 | 52.16240 | 4.45663 | 3670 ft | 197 kts | 47° |
| 2026-05-05 20:16 | 52.17163 | 4.47298 | 3355 ft | 195 kts | 47° |
| 2026-05-05 20:16 | 52.18045 | 4.48867 | 3081 ft | 178 kts | 47° |
| 2026-05-05 20:16 | 52.18842 | 4.50284 | 3005 ft | 164 kts | 47° |
| 2026-05-05 20:17 | 52.19588 | 4.51609 | 3001 ft | 154 kts | 47° |
| 2026-05-05 20:17 | 52.20303 | 4.52882 | 3004 ft | 151 kts | 47° |
| 2026-05-05 20:17 | 52.21008 | 4.54136 | 3006 ft | 150 kts | 47° |
| 2026-05-05 20:17 | 52.21691 | 4.55420 | 2916 ft | 151 kts | 51° |
| 2026-05-05 20:18 | 52.22315 | 4.56807 | 2530 ft | 152 kts | 55° |
| 2026-05-05 20:18 | 52.22898 | 4.58220 | 2247 ft | 149 kts | 56° |
| 2026-05-05 20:18 | 52.23458 | 4.59627 | 2015 ft | 147 kts | 57° |
| 2026-05-05 20:18 | 52.24009 | 4.61032 | 1811 ft | 147 kts | 57° |
| 2026-05-05 20:19 | 52.24550 | 4.62423 | 1623 ft | 146 kts | 57° |
| 2026-05-05 20:19 | 52.25089 | 4.63814 | 1420 ft | 146 kts | 57° |
| 2026-05-05 20:19 | 52.25627 | 4.65206 | 1227 ft | 145 kts | 57° |
| 2026-05-05 20:19 | 52.26165 | 4.66599 | 1034 ft | 145 kts | 57° |
| 2026-05-05 20:20 | 52.26694 | 4.67969 | 841 ft | 144 kts | 57° |
| 2026-05-05 20:20 | 52.27229 | 4.69355 | 657 ft | 144 kts | 57° |
| 2026-05-05 20:20 | 52.27763 | 4.70734 | 461 ft | 143 kts | 57° |
| 2026-05-05 20:20 | 52.28283 | 4.72118 | 289 ft | 143 kts | 58° |
| 2026-05-05 20:21 | 52.28816 | 4.73483 | 89 ft | 142 kts | 57° |
| 2026-05-05 20:21 | 52.29324 | 4.74802 | -1 ft | 122 kts | 57° |
| 2026-05-05 20:21 | 52.29679 | 4.75732 | -4 ft | 76 kts | 58° |
| 2026-05-05 20:21 | 52.29907 | 4.76322 | -7 ft | 56 kts | 58° |
| 2026-05-05 20:22 | 52.30125 | 4.76627 | -2 ft | 38 kts | 26° |
| 2026-05-05 20:22 | 52.30283 | 4.76767 | -3 ft | 16 kts | 37° |
| 2026-05-05 20:22 | 52.30349 | 4.76913 | -3 ft | 16 kts | 60° |
| 2026-05-05 20:22 | 52.30410 | 4.77076 | -3 ft | 19 kts | 58° |
| 2026-05-05 20:23 | 52.30482 | 4.77265 | -3 ft | 20 kts | 58° |
| 2026-05-05 20:23 | 52.30560 | 4.77469 | -2 ft | 22 kts | 57° |
| 2026-05-05 20:23 | 52.30691 | 4.77590 | -2 ft | 23 kts | 9° |
| 2026-05-05 20:23 | 52.30852 | 4.77607 | -2 ft | 24 kts | 3° |
| 2026-05-05 20:24 | 52.31025 | 4.77622 | -2 ft | 26 kts | 3° |
| 2026-05-05 20:24 | 52.31208 | 4.77638 | -2 ft | 27 kts | 3° |
| 2026-05-05 20:24 | 52.31396 | 4.77655 | -2 ft | 26 kts | 359° |
| 2026-05-05 20:24 | 52.31547 | 4.77492 | -2 ft | 27 kts | 306° |
| 2026-05-05 20:25 | 52.31573 | 4.77187 | -3 ft | 28 kts | 267° |
| 2026-05-05 20:25 | 52.31563 | 4.76859 | -3 ft | 29 kts | 266° |
| 2026-05-05 20:25 | 52.31550 | 4.76520 | -2 ft | 30 kts | 266° |
| 2026-05-05 20:25 | 52.31537 | 4.76179 | -2 ft | 31 kts | 267° |
| 2026-05-05 20:26 | 52.31525 | 4.75823 | -2 ft | 31 kts | 266° |
| 2026-05-05 20:26 | 52.31516 | 4.75552 | -3 ft | 17 kts | 266° |
| 2026-05-05 20:26 | 52.31450 | 4.75440 | -3 ft | 12 kts | 184° |
| 2026-05-05 20:26 | 52.31359 | 4.75449 | -2 ft | 14 kts | 176° |
| 2026-05-05 20:27 | 52.31249 | 4.75459 | -2 ft | 17 kts | 177° |
| 2026-05-05 20:27 | 52.31162 | 4.75476 | -2 ft | 10 kts | 158° |
| 2026-05-05 20:27 | 52.31110 | 4.75527 | -2 ft | 0 kts | 148° |
| 2026-05-05 20:27 | 52.31100 | 4.75536 | -2 ft | 5 kts | 148° |
| 2026-05-05 20:28 | 52.31074 | 4.75563 | -2 ft | 4 kts | 146° |
| 2026-05-05 20:28 | 52.31070 | 4.75568 | -2 ft | 0 kts | 146° |